Time;durP1;ratioP1;P1;durP2;ratioP2;P2;SDS_P1;SDS_P2;PMS_P1;PMS_P2;Temp;Humidity;BMP_temperature;BMP_pressure;BME280_temperature;BME280_humidity;BME280_pressure;Samples;Min_cycle;Max_cycle;Signal;HPM_P1;HPM_P2
2022/01/26 00:06:33;;;;;;;264.50;143.38;;;;;;;;;;6213843;23;20059;-77
2022/01/26 00:08:59;;;;;;;254.30;141.60;;;;;;;;;;6213193;23;19993;-77
2022/01/26 00:11:27;;;;;;;262.67;144.15;;;;;;;;;;6213750;23;20016;-76
2022/01/26 00:13:53;;;;;;;268.77;149.65;;;;;;;;;;6187107;23;20001;-78
2022/01/26 00:16:27;;;;;;;279.48;159.13;;;;;;;;;;6187024;23;20426;-76
2022/01/26 00:18:56;;;;;;;308.25;163.25;;;;;;;;;;6187103;23;20364;-76
2022/01/26 00:29:20;;;;;;;288.13;159.98;;;;;;;;;;6213578;23;20005;-76
2022/01/26 00:33:06;;;;;;;245.43;140.50;;;;;;;;;;6213695;23;20008;-77
2022/01/26 00:42:55;;;;;;;185.65;105.80;;;;;;;;;;6213393;23;20001;-76
2022/01/26 00:45:25;;;;;;;170.27;96.43;;;;;;;;;;6186941;23;20011;-76
2022/01/26 00:47:51;;;;;;;203.25;115.07;;;;;;;;;;6213500;23;20033;-76
2022/01/26 00:50:17;;;;;;;213.65;110.70;;;;;;;;;;6186891;23;20112;-76
2022/01/26 00:52:51;;;;;;;193.48;107.72;;;;;;;;;;6186578;23;20071;-75
2022/01/26 00:55:18;;;;;;;192.50;104.07;;;;;;;;;;6186884;23;19996;-76
2022/01/26 00:57:45;;;;;;;202.65;111.10;;;;;;;;;;6213619;23;20012;-76
2022/01/26 01:00:16;;;;;;;200.77;109.82;;;;;;;;;;6213522;23;20371;-76
2022/01/26 01:02:42;;;;;;;197.48;110.25;;;;;;;;;;6186841;23;20041;-76
2022/01/26 01:05:17;;;;;;;188.73;109.13;;;;;;;;;;6186959;23;20424;-76
2022/01/26 01:07:45;;;;;;;205.10;109.70;;;;;;;;;;6186731;23;20435;-75
2022/01/26 01:10:11;;;;;;;191.07;108.28;;;;;;;;;;6186462;23;20420;-75
2022/01/26 01:12:42;;;;;;;199.02;110.50;;;;;;;;;;6186685;23;20001;-78
2022/01/26 01:15:08;;;;;;;225.25;124.35;;;;;;;;;;6186105;23;19993;-75
2022/01/26 01:17:42;;;;;;;247.20;140.85;;;;;;;;;;6185591;23;20005;-77
2022/01/26 01:27:52;;;;;;;163.48;96.35;;;;;;;;;;6215295;23;20016;-76
2022/01/26 01:33:07;;;;;;;171.25;97.88;;;;;;;;;;6215496;23;20066;-76
2022/01/26 01:35:36;;;;;;;191.77;106.15;;;;;;;;;;6188525;23;20112;-76
2022/01/26 01:38:09;;;;;;;177.48;95.93;;;;;;;;;;6215073;23;19997;-76
2022/01/26 01:40:36;;;;;;;166.87;89.93;;;;;;;;;;6214875;23;19999;-75
2022/01/26 01:43:03;;;;;;;172.30;95.85;;;;;;;;;;6188462;23;20222;-76
2022/01/26 01:45:33;;;;;;;158.35;94.60;;;;;;;;;;6215155;23;20063;-76
2022/01/26 01:47:59;;;;;;;155.20;83.93;;;;;;;;;;6213952;23;20463;-77
2022/01/26 01:50:25;;;;;;;153.10;86.55;;;;;;;;;;6188007;23;20001;-77
2022/01/26 01:52:51;;;;;;;153.35;85.55;;;;;;;;;;6214952;23;20064;-77
2022/01/26 01:55:17;;;;;;;142.73;80.18;;;;;;;;;;6214967;23;20000;-76
2022/01/26 01:57:43;;;;;;;147.10;78.47;;;;;;;;;;6188364;23;20383;-75
2022/01/26 02:00:10;;;;;;;143.35;72.50;;;;;;;;;;6213943;23;20336;-77
2022/01/26 02:02:36;;;;;;;127.45;71.80;;;;;;;;;;6214637;23;20004;-77
2022/01/26 02:05:03;;;;;;;122.75;68.72;;;;;;;;;;6187833;23;20316;-76
2022/01/26 02:07:29;;;;;;;85.82;46.40;;;;;;;;;;6187994;23;20013;-76
2022/01/26 02:09:55;;;;;;;85.20;48.55;;;;;;;;;;6213059;23;20005;-78
2022/01/26 02:12:24;;;;;;;65.85;34.58;;;;;;;;;;6214747;23;20001;-75
2022/01/26 02:15:02;;;;;;;75.85;39.60;;;;;;;;;;6214206;23;20348;-79
2022/01/26 06:46:26;;;;;;;171.98;111.72;;;;;;;;;;6180959;23;20021;-96
2022/01/26 06:51:27;;;;;;;290.08;177.07;;;38.60;2201.60;;;;;;6214527;23;20001;-73
2022/01/26 06:53:52;;;;;;;268.52;162.68;;;38.60;2201.60;;;;;;6214598;23;20043;-72
2022/01/26 06:56:18;;;;;;;236.40;148.30;;;38.60;2201.60;;;;;;6212908;23;20001;-73
2022/01/26 06:58:44;;;;;;;336.45;204.00;;;38.60;2201.60;;;;;;6214196;23;20428;-73
2022/01/26 07:01:09;;;;;;;193.07;121.18;;;38.60;2201.60;;;;;;6187973;23;20028;-73
2022/01/26 07:03:35;;;;;;;238.05;144.38;;;38.60;2201.60;;;;;;6214398;23;20023;-73
2022/01/26 07:06:01;;;;;;;171.13;100.80;;;;;;;;;;6214391;23;20001;-73
2022/01/26 07:08:27;;;;;;;103.60;61.22;;;;;;;;;;6214717;23;20013;-73
2022/01/26 07:10:53;;;;;;;122.88;72.13;;;;;;;;;;6215232;23;20407;-73
2022/01/26 07:13:20;;;;;;;123.88;77.13;;;;;;;;;;6188237;23;19996;-73
2022/01/26 07:23:44;;;;;;;173.18;103.38;;;;;;;;;;6213449;23;20004;-74
2022/01/26 07:26:10;;;;;;;140.20;81.70;;;;;;;;;;6214055;23;20003;-74
2022/01/26 07:28:38;;;;;;;184.30;107.18;;;;;;;;;;6214168;23;20131;-74
2022/01/26 07:31:05;;;;;;;173.02;98.28;;;;;;;;;;6213601;23;20377;-74
2022/01/26 07:33:32;;;;;;;81.63;44.70;;;;;;;;;;6187332;23;20490;-74
2022/01/26 07:35:58;;;;;;;73.30;42.28;;;;;;;;;;6214536;23;20024;-74
2022/01/26 07:38:27;;;;;;;51.58;32.45;;;;;;;;;;6214478;23;19996;-75
2022/01/26 07:40:54;;;;;;;77.15;40.90;;;;;;;;;;6214244;23;19996;-75
2022/01/26 07:43:20;;;;;;;56.88;33.65;;;;;;;;;;6214446;23;20066;-75
2022/01/26 07:45:46;;;;;;;58.25;31.67;;;;;;;;;;6214044;23;20116;-74
2022/01/26 07:48:12;;;;;;;106.60;59.92;;;;;;;;;;6213987;23;20031;-74
2022/01/26 07:50:38;;;;;;;60.60;36.88;;;;;;;;;;6214152;23;20004;-74
2022/01/26 07:53:04;;;;;;;83.32;53.53;;;;;;;;;;6214318;23;19996;-74
2022/01/26 07:55:31;;;;;;;66.07;41.83;;;;;;;;;;6214030;23;20100;-75
2022/01/26 07:57:57;;;;;;;56.78;34.90;;;;;;;;;;6214394;23;20076;-75
2022/01/26 08:00:24;;;;;;;67.40;38.63;;;;;;;;;;6213870;23;20002;-75
2022/01/26 08:02:50;;;;;;;71.03;38.75;;;;;;;;;;6214322;23;20428;-77
2022/01/26 08:05:17;;;;;;;74.47;43.08;;;;;;;;;;6187670;23;20323;-75
2022/01/26 08:07:43;;;;;;;68.47;41.95;;;;;;;;;;6213545;23;20305;-75
2022/01/26 08:10:10;;;;;;;87.30;48.42;;;;;;;;;;6214159;23;19992;-75
2022/01/26 08:12:37;;;;;;;67.93;41.72;;;;;;;;;;6214155;23;20095;-77
2022/01/26 08:15:04;;;;;;;77.95;45.17;;;;;;;;;;6213851;23;20379;-75
2022/01/26 08:17:30;;;;;;;75.43;44.97;;;;;;;;;;6213846;23;20050;-75
2022/01/26 08:19:56;;;;;;;79.95;48.58;;;;;;;;;;6213831;23;20076;-74
2022/01/26 08:22:26;;;;;;;65.53;35.53;;;;;;;;;;6213699;23;20120;-75
2022/01/26 08:24:52;;;;;;;77.50;48.10;;;;;;;;;;6187128;23;20371;-75
2022/01/26 08:27:20;;;;;;;72.88;42.30;;;;;;;;;;6181380;23;20012;-76
2022/01/26 08:29:53;;;;;;;77.60;46.33;;;;;;;;;;6211300;23;20000;-75
2022/01/26 08:32:19;;;;;;;70.07;45.78;;;;;;;;;;6213231;23;19997;-75
2022/01/26 08:34:46;;;;;;;70.82;42.30;;;;;;;;;;6186549;23;20109;-75
2022/01/26 08:37:12;;;;;;;72.28;47.00;;;;;;;;;;6212649;23;20001;-75
2022/01/26 08:39:38;;;;;;;65.75;38.35;;;;;;;;;;6212505;23;20020;-75
2022/01/26 08:42:06;;;;;;;71.72;42.15;;;;;;;;;;6212277;23;19997;-75
2022/01/26 08:44:32;;;;;;;72.78;48.58;;;;;;;;;;6212791;23;19993;-75
2022/01/26 08:46:58;;;;;;;60.17;34.80;;;;;;;;;;6212328;23;20318;-75
2022/01/26 08:49:27;;;;;;;63.38;35.50;;;;;;;;;;6212742;23;20032;-75
2022/01/26 08:51:54;;;;;;;41.08;23.80;;;;;;;;;;6212366;23;20028;-75
2022/01/26 08:54:22;;;;;;;36.22;22.25;;;;;;;;;;6213013;23;20004;-75
2022/01/26 08:56:48;;;;;;;37.60;20.42;;;;;;;;;;6213076;23;20008;-75
2022/01/26 08:59:14;;;;;;;48.72;30.77;;;;;;;;;;6213371;23;20001;-75
2022/01/26 09:01:40;;;;;;;53.75;35.55;;;;;;;;;;6213410;23;20001;-75
2022/01/26 09:04:06;;;;;;;40.03;22.92;;;;;;;;;;6213479;23;19992;-75
2022/01/26 09:06:38;;;;;;;39.38;23.17;;;;;;;;;;6213016;23;20100;-75
2022/01/26 09:09:08;;;;;;;52.28;31.50;;;;;;;;;;6213783;23;20011;-74
2022/01/26 09:11:37;;;;;;;49.83;30.02;;;;;;;;;;6186596;23;20518;-75
2022/01/26 09:14:08;;;;;;;38.70;23.35;;;;;;;;;;6213407;23;19992;-75
2022/01/26 09:16:35;;;;;;;55.53;29.95;;;;;;;;;;6213121;23;20004;-75
2022/01/26 09:19:08;;;;;;;55.10;32.90;;;;;;;;;;6213355;23;19996;-75
2022/01/26 09:21:35;;;;;;;54.60;35.03;;;;;;;;;;6213038;23;20003;-75
2022/01/26 09:24:01;;;;;;;50.30;29.80;;;;;;;;;;6213324;23;20058;-75
2022/01/26 09:26:27;;;;;;;58.85;35.03;;;;;;;;;;6212900;23;20000;-75
2022/01/26 09:28:53;;;;;;;66.13;38.63;;;;;;;;;;6186736;23;20328;-75
2022/01/26 09:31:19;;;;;;;66.30;41.90;;;;;;;;;;6213150;23;20024;-75
2022/01/26 09:33:45;;;;;;;75.38;44.10;;;;;;;;;;6213582;23;20004;-75
2022/01/26 09:36:12;;;;;;;73.53;46.15;;;;;;;;;;6186715;23;20009;-75
2022/01/26 09:38:39;;;;;;;80.43;43.30;;;;;;;;;;6186478;23;20009;-75
2022/01/26 09:41:05;;;;;;;77.20;49.20;;;;;;;;;;6213974;23;20001;-75
2022/01/26 09:43:32;;;;;;;73.28;42.55;;;;;;;;;;6215109;23;19996;-75
2022/01/26 09:45:58;;;;;;;64.20;38.80;;;;;;;;;;6215294;23;19996;-77
2022/01/26 09:48:24;;;;;;;64.95;37.38;;;;;;;;;;6187954;23;20016;-75
2022/01/26 09:50:55;;;;;;;63.05;38.25;;;;;;;;;;6215222;23;20033;-75
2022/01/26 09:53:27;;;;;;;60.58;35.88;;;;;;;;;;6188507;23;20001;-75
2022/01/26 09:55:53;;;;;;;51.42;32.08;;;;;;;;;;6215158;23;20010;-76
2022/01/26 09:58:20;;;;;;;58.00;37.50;;;;;;;;;;6215466;23;20004;-75
2022/01/26 10:00:46;;;;;;;63.40;39.70;;;;;;;;;;6215671;23;19993;-75
2022/01/26 10:03:14;;;;;;;60.45;37.47;;;;;;;;;;6215073;23;20007;-75
2022/01/26 10:05:44;;;;;;;59.25;36.88;;;;;;;;;;6188950;23;20079;-75
2022/01/26 10:19:03;;;;;;;64.38;43.03;;;;;;;;;;6215466;23;20032;-74
2022/01/26 10:21:29;;;;;;;83.18;47.33;;;;;;;;;;6215078;23;20014;-75
2022/01/26 10:23:58;;;;;;;71.82;39.55;;;;;;;;;;6187760;23;20000;-74
2022/01/26 10:26:24;;;;;;;82.03;47.53;;;;;;;;;;6215026;23;20005;-74
2022/01/26 10:28:56;;;;;;;82.88;44.65;;;;;;;;;;6214939;23;20005;-74
2022/01/26 10:31:23;;;;;;;94.18;54.85;;;;;;;;;;6215399;23;20000;-76
2022/01/26 10:33:58;;;;;;;78.22;50.00;;;;;;;;;;6215412;23;20485;-74
2022/01/26 10:36:35;;;;;;;90.53;55.95;;;;;;;;;;6215492;23;20067;-74
2022/01/26 10:39:05;;;;;;;83.82;49.72;;;;;;;;;;6215450;23;19996;-74
2022/01/26 10:41:31;;;;;;;79.45;48.25;;;;;;;;;;6188388;23;20088;-76
2022/01/26 10:43:59;;;;;;;84.15;50.05;;;;;;;;;;6188176;23;20454;-75
2022/01/26 10:46:30;;;;;;;64.80;42.67;;;;;;;;;;6187783;23;20494;-75
2022/01/26 10:51:55;;;;;;;56.15;30.60;;;;;;;;;;6168108;23;20335;-75
2022/01/26 10:54:37;;;;;;;47.13;32.33;;;;;;;;;;6214763;23;20000;-75
2022/01/26 10:57:07;;;;;;;49.65;29.85;;;;;;;;;;6214783;23;20000;-75
2022/01/26 10:59:34;;;;;;;56.22;34.22;;;;;;;;;;6188227;23;20001;-75
2022/01/26 11:02:04;;;;;;;55.13;30.83;;;;;;;;;;6214295;23;19997;-76
2022/01/26 11:04:32;;;;;;;51.08;30.02;;;;;;;;;;6213771;23;20505;-75
2022/01/26 11:06:58;;;;;;;58.97;34.50;;;;;;;;;;6214335;23;20503;-75
2022/01/26 11:09:26;;;;;;;54.55;37.50;;;;;;;;;;6187571;23;20079;-75
2022/01/26 11:12:02;;;;;;;54.65;33.15;;;;;;;;;;6187070;23;20055;-75
2022/01/26 11:14:38;;;;;;;43.20;27.90;;;;;;;;;;6213521;23;20001;-75
2022/01/26 11:17:04;;;;;;;53.50;31.05;;;;;;;;;;6213846;23;19992;-75
2022/01/26 11:19:39;;;;;;;43.38;25.73;;;;;;;;;;6212970;23;20001;-74
2022/01/26 11:22:07;;;;;;;64.72;39.95;;;;;;;;;;6213933;23;20046;-75
2022/01/26 11:24:41;;;;;;;61.40;35.22;;;;;;;;;;6214346;23;20003;-74
2022/01/26 11:27:07;;;;;;;44.10;26.33;;;;;;;;;;6213823;23;20397;-75
2022/01/26 11:29:37;;;;;;;45.20;27.00;;;;;;;;;;6214202;23;19992;-75
2022/01/26 11:32:14;;;;;;;48.95;29.95;;;;;;;;;;6214119;23;20018;-75
2022/01/26 11:34:41;;;;;;;43.67;28.83;;;;;;;;;;6214244;23;20009;-75
2022/01/26 11:37:08;;;;;;;53.70;34.13;;;;;;;;;;6187491;23;20007;-76
2022/01/26 11:45:13;;;;;;;46.88;26.17;;;;;;;;;;6214160;23;20000;-75
2022/01/26 11:47:41;;;;;;;49.00;30.13;;;;;;;;;;6213579;23;20428;-75
2022/01/26 11:50:09;;;;;;;42.40;29.00;;;;;;;;;;6213791;23;19999;-75
2022/01/26 11:52:38;;;;;;;52.05;35.70;;;;;;;;;;6213601;23;20004;-75
2022/01/26 11:55:19;;;;;;;54.05;33.70;;;;;;;;;;6213775;23;19993;-75
2022/01/26 11:57:50;;;;;;;61.97;37.13;;;;;;;;;;6187191;23;20004;-76
2022/01/26 12:00:23;;;;;;;55.92;33.53;;;;;;;;;;6213995;23;19997;-74
2022/01/26 12:02:53;;;;;;;55.45;34.65;;;;;;;;;;6212423;23;20046;-75
2022/01/26 12:05:22;;;;;;;51.58;33.53;;;;;;;;;;6186372;23;20001;-75
2022/01/26 12:07:55;;;;;;;52.17;35.50;;;;;;;;;;6213316;23;20139;-75
2022/01/26 12:10:28;;;;;;;53.17;34.92;;;;;;;;;;6213863;23;20335;-75
2022/01/26 12:13:05;;;;;;;52.42;34.22;;;;;;;;;;6213659;23;20032;-74
2022/01/26 12:15:39;;;;;;;54.10;33.42;;;;;;;;;;6213317;23;20001;-74
2022/01/26 12:34:40;;;;;;;42.47;27.33;;;;;;;;;;6213390;23;20043;-75
2022/01/26 12:42:58;;;;;;;52.80;32.45;;;;;;;;;;6130905;23;20009;-75
2022/01/26 12:45:25;;;;;;;45.25;30.88;;;;;;;;;;6212806;23;20000;-77
2022/01/26 12:47:52;;;;;;;54.45;36.22;;;;;;;;;;6212655;23;20090;-75
2022/01/26 12:50:19;;;;;;;42.50;27.77;;;;;;;;;;6186982;23;20083;-75
2022/01/26 12:52:49;;;;;;;44.03;29.50;;;;;;;;;;6213451;23;20023;-76
2022/01/26 12:55:23;;;;;;;51.40;31.90;;;;;;;;;;6213957;23;20055;-75
2022/01/26 12:57:49;;;;;;;53.15;33.80;;;;;;;;;;6213394;23;20000;-75
2022/01/26 13:00:16;;;;;;;42.63;27.27;;;;;;;;;;6186537;23;20012;-76
2022/01/26 13:02:42;;;;;;;58.90;34.33;;;;;;;;;;6213458;23;20446;-75
2022/01/26 13:05:08;;;;;;;50.63;29.13;;;;;;;;;;6213572;23;20000;-75
2022/01/26 13:07:34;;;;;;;48.15;30.38;;;;;;;;;;6213124;23;20087;-75
2022/01/26 13:10:00;;;;;;;39.33;26.88;;;;;;;;;;6186557;23;20001;-75
2022/01/26 13:12:31;;;;;;;59.83;35.20;;;;;;;;;;6213158;23;19997;-75
2022/01/26 13:18:08;;;;;;;72.18;40.83;;;;;;;;;;6195177;23;20015;-75
2022/01/26 13:31:17;;;;;;;45.47;27.63;;;;;;;;;;6216150;23;20005;-75
2022/01/26 13:52:17;;;;;;;58.67;36.67;;;;;;;;;;6214763;23;20383;-75
2022/01/26 14:00:18;;;;;;;62.30;39.03;;;;;;;;;;6211419;23;20079;-75
2022/01/26 14:02:57;;;;;;;58.15;34.60;;;;;;;;;;6215079;23;20003;-79
2022/01/26 14:05:26;;;;;;;53.45;36.78;;;;;;;;;;6187894;23;20309;-77
2022/01/26 14:07:56;;;;;;;55.10;38.15;;;;;;;;;;6188016;23;20061;-74
2022/01/26 14:10:22;;;;;;;57.13;34.90;;;;;;;;;;6214251;23;19996;-74
2022/01/26 14:12:49;;;;;;;54.65;32.35;;;;;;;;;;6214028;23;19997;-76
2022/01/26 14:15:22;;;;;;;52.13;34.05;;;;;;;;;;6214320;23;19996;-77
2022/01/26 14:25:41;;;;;;;69.95;44.33;;;;;;;;;;6215328;23;20436;-79
2022/01/26 14:28:09;;;;;;;72.18;43.03;;;;;;;;;;6214143;23;20403;-76
2022/01/26 15:50:58;;;;;;;56.85;35.67;;;;;;;;;;6213310;23;20019;-78
2022/01/26 15:58:42;;;;;;;56.88;37.25;;;;;;;;;;6213883;23;20055;-79
2022/01/26 16:06:57;;;;;;;51.28;33.72;;;;;;;;;;6213653;23;20012;-78
2022/01/26 17:26:43;;;;;;;77.18;37.42;;;;;;;;;;6213173;23;20073;-79
2022/01/26 18:40:01;;;;;;;98.85;58.63;;;;;;;;;;6214476;23;20035;-76
2022/01/26 18:50:28;;;;;;;78.85;51.72;;;;;;;;;;6214936;23;20099;-77
2022/01/26 18:52:54;;;;;;;92.97;49.58;;;;;;;;;;6188063;23;20032;-76
2022/01/26 18:55:20;;;;;;;83.30;51.80;;;;;;;;;;6214687;23;20055;-76
2022/01/26 18:57:48;;;;;;;81.18;52.08;;;;;;;;;;6215203;23;20046;-75
2022/01/26 19:00:14;;;;;;;108.95;60.17;;;;;;;;;;6215124;23;20019;-75
2022/01/26 19:02:40;;;;;;;91.13;51.70;;;;;;;;;;6215072;23;20043;-75
2022/01/26 19:05:07;;;;;;;98.47;52.60;;;;;;;;;;6214593;23;20067;-75
2022/01/26 19:07:34;;;;;;;100.50;56.33;;;;;;;;;;6214895;23;20078;-75
2022/01/26 19:10:00;;;;;;;96.18;56.33;;;;;;;;;;6214849;23;20004;-76
2022/01/26 19:12:30;;;;;;;109.95;60.88;;;;;;;;;;6187868;23;19996;-75
2022/01/26 19:15:01;;;;;;;96.93;58.28;;;;;;;;;;6188045;23;19997;-75
2022/01/26 19:17:36;;;;;;;111.65;60.28;;;;;;;;;;6215189;23;20004;-75
2022/01/26 19:20:24;;;;;;;109.78;64.43;;;;;;;;;;6187681;23;20055;-74
2022/01/26 19:25:31;;;;;;;105.95;59.75;;;;;;;;;;6214117;23;20001;-77
2022/01/26 19:44:31;;;;;;;;;;;;;;;;;;6214599;23;20001;-75
2022/01/26 19:52:16;;;;;;;78.55;49.08;;;;;;;;;;6171068;23;20011;-75
2022/01/26 19:54:46;;;;;;;84.32;47.28;;;;;;;;;;6213678;23;20023;-76
2022/01/26 19:57:12;;;;;;;76.93;48.28;;;;;;;;;;6212135;23;20086;-75
2022/01/26 19:59:38;;;;;;;79.68;48.05;;;;;;;;;;6213992;23;20005;-74
2022/01/26 20:02:05;;;;;;;90.10;55.78;;;;;;;;;;6213594;23;20004;-77
2022/01/26 20:04:32;;;;;;;102.47;62.85;;;;;;;;;;6213385;23;19993;-76
2022/01/26 20:07:04;;;;;;;90.55;53.05;;;;;;;;;;6213412;23;20039;-75
2022/01/26 20:09:43;;;;;;;105.20;62.47;;;;;;;;;;6213379;23;19992;-75
2022/01/26 20:12:20;;;;;;;78.95;42.42;;;;;;;;;;6213596;23;20027;-75
2022/01/26 20:14:46;;;;;;;92.55;54.70;;;;;;;;;;6213906;23;20070;-76
2022/01/26 20:17:12;;;;;;;96.97;64.05;;;;;;;;;;6214170;23;20015;-75
2022/01/26 20:19:38;;;;;;;95.07;51.10;;;;;;;;;;6214054;23;20409;-75
2022/01/26 20:22:05;;;;;;;93.25;47.38;;;;;;;;;;6214368;23;19997;-75
2022/01/26 20:24:32;;;;;;;91.55;51.50;;;;;;;;;;6187692;23;20007;-75
2022/01/26 20:26:58;;;;;;;96.90;58.22;;;;;;;;;;6213739;23;20005;-75
2022/01/26 20:29:33;;;;;;;93.30;56.22;;;;;;;;;;6213808;23;19993;-76
2022/01/26 20:32:00;;;;;;;86.78;51.25;;;;;;;;;;6213230;23;19993;-76
2022/01/26 20:34:26;;;;;;;96.43;60.63;;;;;;;;;;6213015;23;20015;-76
2022/01/26 20:36:52;;;;;;;74.97;42.92;;;;;;;;;;6213399;23;20428;-76
2022/01/26 20:39:19;;;;;;;77.38;43.45;;;;;;;;;;6213585;23;20047;-76
2022/01/26 20:41:45;;;;;;;87.43;53.67;;;;;;;;;;6186955;23;20005;-77
2022/01/26 20:44:11;;;;;;;82.47;44.65;;;;;;;;;;6213547;23;19999;-76
2022/01/26 20:46:37;;;;;;;86.60;53.53;;;;;;;;;;6213628;23;20474;-76
2022/01/26 20:49:03;;;;;;;85.80;50.78;;;;;;;;;;6213577;23;20008;-75
2022/01/26 20:51:29;;;;;;;84.45;51.35;;;;;;;;;;6213377;23;20008;-75
2022/01/26 20:53:57;;;;;;;70.88;37.60;;;;;;;;;;6213564;23;19996;-76
2022/01/26 20:56:24;;;;;;;66.45;38.47;;;;;;;;;;6187050;23;20011;-76
2022/01/26 20:58:50;;;;;;;75.95;41.80;;;;;;;;;;6213201;23;20005;-76
2022/01/26 21:01:16;;;;;;;72.63;40.17;;;;;;;;;;6213202;23;19997;-76
2022/01/26 21:03:42;;;;;;;82.32;45.13;;;;;;;;;;6213493;23;20432;-76
2022/01/26 21:06:08;;;;;;;74.40;39.67;;;;;;;;;;6212621;23;20032;-75
2022/01/26 21:08:35;;;;;;;66.32;37.40;;;;;;;;;;6185776;23;20037;-76
2022/01/26 21:11:01;;;;;;;80.03;46.03;;;;;;;;;;6213064;23;20051;-75
2022/01/26 21:13:27;;;;;;;82.65;52.05;;;;;;;;;;6213650;23;20314;-75
2022/01/26 21:15:53;;;;;;;78.63;44.03;;;;;;;;;;6213066;23;20000;-76
2022/01/26 21:18:20;;;;;;;68.05;40.53;;;;;;;;;;6211740;23;19997;-75
2022/01/26 21:20:46;;;;;;;69.25;40.28;;;;;;;;;;6185994;23;20001;-76
2022/01/26 21:23:12;;;;;;;55.85;33.10;;;;;;;;;;6185781;23;20071;-76
2022/01/26 21:25:39;;;;;;;66.05;40.63;;;;;;;;;;6186053;23;20047;-76
2022/01/26 21:28:06;;;;;;;57.40;35.22;;;;;;;;;;6186151;23;20027;-75
2022/01/26 21:30:32;;;;;;;58.42;34.47;;;;;;;;;;6212950;23;19997;-77
2022/01/26 21:32:58;;;;;;;71.95;39.83;;;;;;;;;;6213003;23;20055;-78
2022/01/26 21:35:25;;;;;;;72.80;41.63;;;;;;;;;;6213021;23;19993;-75
2022/01/26 21:37:53;;;;;;;80.00;47.08;;;;;;;;;;6214005;23;19997;-75
2022/01/26 21:40:19;;;;;;;84.28;51.97;;;;;;;;;;6215148;23;20023;-75
2022/01/26 21:42:45;;;;;;;70.43;37.58;;;;;;;;;;6214201;23;20047;-75
2022/01/26 21:45:11;;;;;;;80.80;47.05;;;;;;;;;;6214958;23;20001;-76
2022/01/26 21:47:38;;;;;;;86.50;54.45;;;;;;;;;;6214239;23;20012;-76
2022/01/26 21:50:04;;;;;;;79.70;48.50;;;;;;;;;;6214789;23;19997;-76
2022/01/26 21:52:31;;;;;;;68.90;36.55;;;;;;;;;;6214723;23;19997;-75
2022/01/26 21:54:57;;;;;;;83.72;52.38;;;;;;;;;;6214687;23;20014;-76
2022/01/26 21:57:23;;;;;;;70.22;42.63;;;;;;;;;;6214412;23;19997;-75
2022/01/26 21:59:49;;;;;;;82.00;49.15;;;;;;;;;;6213922;23;20012;-76
2022/01/26 22:02:15;;;;;;;85.90;55.53;;;;;;;;;;6187966;23;20001;-76
2022/01/26 22:04:41;;;;;;;84.07;53.55;;;;;;;;;;6215420;23;20008;-76
2022/01/26 22:07:08;;;;;;;95.40;57.97;;;;;;;;;;6188990;23;20424;-76
2022/01/26 22:09:35;;;;;;;86.63;51.47;;;;;;;;;;6187763;23;20007;-76
2022/01/26 22:12:01;;;;;;;94.05;58.63;;;;;;;;;;6214612;23;20004;-75
2022/01/26 22:14:27;;;;;;;85.32;52.30;;;;;;;;;;6214569;23;19997;-75
2022/01/26 22:16:54;;;;;;;94.47;58.42;;;;;;;;;;6214749;23;20068;-76
2022/01/26 22:19:20;;;;;;;92.57;58.80;;;;;;;;;;6215205;23;20001;-75
2022/01/26 22:21:46;;;;;;;103.32;66.18;;;;;;;;;;6214463;23;20000;-75
2022/01/26 22:24:12;;;;;;;106.70;61.03;;;;;;;;;;6215093;23;20071;-75
2022/01/26 22:26:39;;;;;;;89.88;57.33;;;;;;;;;;6214507;23;19992;-75
2022/01/26 22:29:06;;;;;;;98.93;62.13;;;;;;;;;;6214716;23;20019;-75
2022/01/26 22:31:32;;;;;;;109.80;63.22;;;;;;;;;;6213995;23;20050;-76
2022/01/26 22:34:01;;;;;;;110.10;63.83;;;;;;;;;;6188321;23;20007;-75
2022/01/26 22:36:27;;;;;;;109.25;64.75;;;;;;;;;;6215420;23;20000;-75
2022/01/26 22:38:53;;;;;;;109.53;66.70;;;;;;;;;;6188814;23;20028;-74
2022/01/26 22:41:19;;;;;;;110.38;67.85;;;;;;;;;;6188659;23;20005;-75
2022/01/26 22:43:45;;;;;;;106.15;64.30;;;;;;;;;;6188675;23;20032;-75
2022/01/26 22:46:11;;;;;;;90.25;51.90;;;;;;;;;;6214988;23;20072;-76
2022/01/26 22:48:37;;;;;;;91.70;55.75;;;;;;;;;;6187847;23;20492;-75
2022/01/26 22:51:04;;;;;;;83.60;48.47;;;;;;;;;;6215252;23;20035;-76
2022/01/26 22:53:30;;;;;;;74.75;43.75;;;;;;;;;;6214323;23;20024;-76
2022/01/26 22:55:56;;;;;;;67.57;40.70;;;;;;;;;;6213908;23;20000;-76
2022/01/26 22:58:23;;;;;;;77.93;47.05;;;;;;;;;;6188428;23;20083;-76
2022/01/26 23:03:37;;;;;;;73.80;46.50;;;;;;;;;;6214920;23;20464;-76
2022/01/26 23:08:36;;;;;;;81.28;49.03;;;;;;;;;;6215063;23;20017;-75
2022/01/26 23:11:06;;;;;;;81.38;48.05;;;;;;;;;;6215025;23;20035;-76
2022/01/26 23:13:33;;;;;;;82.45;51.88;;;;;;;;;;6214643;23;20047;-76
2022/01/26 23:15:59;;;;;;;76.25;46.15;;;;;;;;;;6188345;23;20008;-77
2022/01/26 23:18:25;;;;;;;77.63;47.33;;;;;;;;;;6188281;23;20007;-76
2022/01/26 23:20:51;;;;;;;70.07;45.30;;;;;;;;;;6188459;23;20432;-77
2022/01/26 23:23:17;;;;;;;68.85;39.97;;;;;;;;;;6214931;23;20012;-76
2022/01/26 23:25:54;;;;;;;69.32;39.47;;;;;;;;;;6214466;23;20380;-76
2022/01/26 23:28:30;;;;;;;70.82;42.92;;;;;;;;;;6214753;23;20008;-77
2022/01/26 23:36:42;;;;;;;78.30;45.88;;;;;;;;;;6214868;23;20435;-76
